Time;durP1;ratioP1;P1;durP2;ratioP2;P2;SDS_P1;SDS_P2;PMS_P1;PMS_P2;Temp;Humidity;BMP_temperature;BMP_pressure;BME280_temperature;BME280_humidity;BME280_pressure;Samples;Min_cycle;Max_cycle;Signal;HPM_P1;HPM_P2
2023/07/30 00:02:09;;;;;;;9.43;2.00;;;;;;;;;;5041396;28;20057;-67
2023/07/30 00:04:35;;;;;;;3.45;1.40;;;;;;;;;;5041483;28;20054;-65
2023/07/30 00:07:02;;;;;;;10.02;2.15;;;;;;;;;;5042320;28;20481;-66
2023/07/30 00:09:29;;;;;;;7.72;1.92;;;;;;;;;;5043022;28;20049;-66
2023/07/30 00:11:55;;;;;;;5.63;1.65;;;;;;;;;;5041622;28;20136;-64
2023/07/30 00:14:22;;;;;;;10.25;1.48;;;;;;;;;;5042396;28;20066;-64
2023/07/30 00:16:48;;;;;;;8.52;2.47;;;;;;;;;;5045633;28;20057;-61
2023/07/30 00:19:15;;;;;;;7.10;1.83;;;;;;;;;;5043073;28;20540;-65
2023/07/30 00:21:45;;;;;;;6.45;1.65;;;;;;;;;;5029395;28;20144;-66
2023/07/30 00:24:13;;;;;;;11.68;1.65;;;;;;;;;;5042044;28;20590;-66
2023/07/30 00:26:39;;;;;;;6.18;1.95;;;;;;;;;;5041267;28;20057;-66
2023/07/30 00:29:06;;;;;;;3.95;1.38;;;;;;;;;;5041601;28;20069;-66
2023/07/30 00:31:33;;;;;;;9.40;1.85;;;;;;;;;;5042368;28;20076;-65
2023/07/30 00:33:59;;;;;;;8.13;3.53;;;;;;;;;;5041650;28;20057;-62
2023/07/30 00:36:26;;;;;;;8.25;2.15;;;;;;;;;;5042046;28;20073;-66
2023/07/30 00:38:52;;;;;;;5.05;1.95;;;;;;;;;;5041704;28;20119;-62
2023/07/30 00:41:18;;;;;;;10.50;1.98;;;;;;;;;;5042927;28;20060;-64
2023/07/30 00:43:45;;;;;;;8.43;1.92;;;;;;;;;;5040862;28;20049;-65
2023/07/30 00:46:12;;;;;;;8.10;2.25;;;;;;;;;;5041647;28;20365;-65
2023/07/30 00:48:39;;;;;;;13.70;2.47;;;;;;;;;;5042014;28;20145;-61
2023/07/30 00:51:06;;;;;;;7.55;1.92;;;;;;;;;;5039751;28;20151;-66
2023/07/30 00:53:33;;;;;;;7.05;2.10;;;;;;;;;;5040472;28;20634;-65
2023/07/30 00:56:00;;;;;;;11.68;1.88;;;;;;;;;;5041148;28;20453;-62
2023/07/30 00:58:26;;;;;;;11.55;2.30;;;;;;;;;;5039392;28;20053;-65
2023/07/30 01:00:53;;;;;;;4.47;1.80;;;;;;;;;;5041189;28;20508;-67
2023/07/30 01:03:19;;;;;;;6.15;2.10;;;;;;;;;;5042348;28;20092;-67
2023/07/30 01:05:46;;;;;;;7.82;2.13;;;;;;;;;;5036489;28;20529;-66
2023/07/30 01:08:12;;;;;;;11.40;2.42;;;;;;;;;;5035765;28;20073;-64
2023/07/30 01:10:41;;;;;;;8.05;1.60;;;;;;;;;;5041597;28;20155;-64
2023/07/30 01:13:09;;;;;;;8.80;2.33;;;;;;;;;;5041046;28;20057;-66
2023/07/30 01:15:36;;;;;;;6.60;2.30;;;;;;;;;;5040674;28;20119;-62
2023/07/30 01:18:03;;;;;;;7.55;2.10;;;;;;;;;;5041633;28;20060;-64
2023/07/30 01:20:30;;;;;;;7.75;2.25;;;;;;;;;;5042010;28;20054;-63
2023/07/30 01:23:00;;;;;;;5.65;1.63;;;;;;;;;;5040540;28;20484;-66
2023/07/30 01:25:33;;;;;;;6.40;2.47;;;;;;;;;;5042593;28;20096;-61
2023/07/30 01:28:01;;;;;;;8.65;2.15;;;;;;;;;;5039889;28;20057;-66
2023/07/30 01:30:29;;;;;;;10.02;1.98;;;;;;;;;;5037095;28;20061;-66
2023/07/30 01:32:56;;;;;;;8.63;2.25;;;;;;;;;;5041460;28;20063;-63
2023/07/30 01:35:26;;;;;;;6.88;2.17;;;;;;;;;;5041159;28;20049;-63
2023/07/30 01:37:52;;;;;;;9.05;2.63;;;;;;;;;;5039765;28;20056;-65
2023/07/30 01:40:19;;;;;;;6.88;2.28;;;;;;;;;;5040351;28;20145;-63
2023/07/30 01:42:46;;;;;;;6.80;1.75;;;;;;;;;;5041625;28;20127;-64
2023/07/30 01:45:12;;;;;;;11.55;2.28;;;;;;;;;;5041260;28;20136;-65
2023/07/30 01:47:39;;;;;;;5.00;1.98;;;;;;;;;;5040647;28;20057;-66
2023/07/30 01:50:05;;;;;;;7.10;1.83;;;;;;;;;;5040784;28;20057;-65
2023/07/30 01:52:32;;;;;;;12.10;2.42;;;;;;;;;;5038845;28;20248;-67
2023/07/30 01:55:00;;;;;;;7.68;2.28;;;;;;;;;;5039726;28;20424;-61
2023/07/30 01:57:27;;;;;;;10.70;2.50;;;;;;;;;;5039527;28;20056;-66
2023/07/30 01:59:53;;;;;;;10.15;2.50;;;;;;;;;;5039572;28;20057;-62
2023/07/30 02:02:20;;;;;;;7.05;2.25;;;;;;;;;;5041420;28;20120;-65
2023/07/30 02:04:46;;;;;;;9.35;2.58;;;;;;;;;;5040365;28;20051;-63
2023/07/30 02:07:13;;;;;;;7.68;2.28;;;;;;;;;;5041455;28;20049;-60
2023/07/30 02:09:39;;;;;;;7.82;2.33;;;;;;;;;;5039608;28;20057;-66
2023/07/30 02:12:06;;;;;;;8.30;2.38;;;;;;;;;;5040491;28;20053;-64
2023/07/30 02:14:32;;;;;;;11.23;2.35;;;;;;;;;;5040807;28;20140;-64
2023/07/30 02:16:59;;;;;;;7.20;2.65;;;;;;;;;;5041487;28;20061;-61
2023/07/30 02:19:25;;;;;;;7.80;1.73;;;;;;;;;;5040572;28;20053;-67
2023/07/30 02:21:52;;;;;;;10.32;3.67;;;;;;;;;;5039507;28;20144;-66
2023/07/30 02:24:18;;;;;;;16.67;3.00;;;;;;;;;;5040398;28;20548;-61
2023/07/30 02:26:45;;;;;;;12.95;2.78;;;;;;;;;;5039591;28;20140;-67
2023/07/30 02:29:12;;;;;;;16.15;2.53;;;;;;;;;;5040861;28;20054;-66
2023/07/30 02:31:38;;;;;;;15.52;3.67;;;;;;;;;;5041584;28;20516;-65
2023/07/30 02:34:06;;;;;;;12.88;2.92;;;;;;;;;;5040864;28;20066;-62
2023/07/30 02:36:33;;;;;;;11.15;2.85;;;;;;;;;;5040091;28;20056;-63
2023/07/30 02:38:59;;;;;;;8.35;2.53;;;;;;;;;;5041327;28;20136;-67
2023/07/30 02:41:26;;;;;;;14.63;3.45;;;;;;;;;;5040442;28;20572;-66
2023/07/30 02:43:52;;;;;;;9.85;2.70;;;;;;;;;;5039707;28;20053;-67
2023/07/30 02:46:19;;;;;;;11.63;2.65;;;;;;;;;;5041558;28;20578;-67
2023/07/30 02:48:45;;;;;;;18.40;2.88;;;;;;;;;;5040756;28;20111;-64
2023/07/30 02:51:11;;;;;;;11.90;2.65;;;;;;;;;;5038620;28;20057;-66
2023/07/30 02:53:38;;;;;;;13.93;3.72;;;;;;;;;;5039809;28;20149;-67
2023/07/30 02:56:04;;;;;;;11.80;3.38;;;;;;;;;;5038089;28;20049;-66
2023/07/30 02:58:30;;;;;;;17.02;3.33;;;;;;;;;;5041412;28;20056;-67
2023/07/30 03:01:05;;;;;;;13.43;3.30;;;;;;;;;;5041368;28;20164;-62
2023/07/30 03:03:31;;;;;;;13.10;2.72;;;;;;;;;;5038763;28;20053;-66
2023/07/30 03:05:58;;;;;;;10.70;3.00;;;;;;;;;;5040237;28;20099;-59
2023/07/30 03:08:24;;;;;;;8.90;3.53;;;;;;;;;;5040722;28;20061;-66
2023/07/30 03:10:51;;;;;;;12.85;2.83;;;;;;;;;;5044696;28;20068;-67
2023/07/30 03:13:18;;;;;;;15.82;3.63;;;;;;;;;;5033466;28;20170;-61
2023/07/30 03:15:46;;;;;;;12.05;2.95;;;;;;;;;;5043339;28;20050;-62
2023/07/30 03:18:12;;;;;;;13.05;2.90;;;;;;;;;;5049752;28;20523;-65
2023/07/30 03:20:39;;;;;;;14.40;3.30;;;;;;;;;;5043299;28;20054;-66
2023/07/30 03:23:05;;;;;;;20.17;3.67;;;;;;;;;;5057966;28;20049;-66
2023/07/30 03:25:32;;;;;;;10.20;3.50;;;;;;;;;;5043123;28;20054;-66
2023/07/30 03:27:58;;;;;;;13.75;3.47;;;;;;;;;;5034392;28;20061;-61
2023/07/30 03:30:25;;;;;;;13.88;2.85;;;;;;;;;;5044233;28;20076;-66
2023/07/30 03:32:51;;;;;;;13.32;3.22;;;;;;;;;;5044857;28;20053;-66
2023/07/30 03:35:17;;;;;;;15.52;3.03;;;;;;;;;;5042416;28;20052;-67
2023/07/30 03:37:44;;;;;;;8.68;2.83;;;;;;;;;;5044062;28;20221;-66
2023/07/30 03:40:10;;;;;;;16.45;3.50;;;;;;;;;;5042882;28;20053;-65
2023/07/30 03:42:36;;;;;;;14.10;3.97;;;;;;;;;;5042710;28;20058;-63
2023/07/30 03:45:03;;;;;;;11.98;2.97;;;;;;;;;;5043426;28;20053;-60
2023/07/30 03:47:30;;;;;;;19.25;3.95;;;;;;;;;;5044283;28;20593;-63
2023/07/30 03:49:56;;;;;;;14.52;4.15;;;;;;;;;;5043055;28;20523;-64
2023/07/30 03:52:23;;;;;;;25.15;4.38;;;;;;;;;;5043373;28;20127;-63
2023/07/30 03:54:49;;;;;;;16.48;4.13;;;;;;;;;;5043420;28;20072;-64
2023/07/30 03:57:16;;;;;;;13.88;4.57;;;;;;;;;;5043519;28;20049;-65
2023/07/30 03:59:43;;;;;;;15.00;3.75;;;;;;;;;;5040813;28;20143;-61
2023/07/30 04:02:10;;;;;;;19.88;4.03;;;;;;;;;;5042194;28;20137;-67
2023/07/30 04:04:36;;;;;;;15.60;3.63;;;;;;;;;;5043070;28;20208;-65
2023/07/30 04:07:03;;;;;;;10.95;3.28;;;;;;;;;;5042832;28;20085;-64
2023/07/30 04:09:29;;;;;;;12.25;3.47;;;;;;;;;;5042732;28;20140;-63
2023/07/30 04:11:56;;;;;;;18.42;3.95;;;;;;;;;;5042934;28;20119;-66
2023/07/30 04:14:22;;;;;;;13.93;3.92;;;;;;;;;;5043103;28;20115;-59
2023/07/30 04:16:49;;;;;;;19.92;4.47;;;;;;;;;;5041798;28;20053;-65
2023/07/30 04:19:16;;;;;;;18.60;3.65;;;;;;;;;;5043010;28;20104;-67
2023/07/30 04:21:42;;;;;;;18.58;4.43;;;;;;;;;;5042577;28;20050;-66
2023/07/30 04:24:09;;;;;;;18.38;4.28;;;;;;;;;;5042860;28;20054;-64
2023/07/30 04:26:35;;;;;;;24.63;4.30;;;;;;;;;;5042337;28;20136;-64
2023/07/30 04:29:02;;;;;;;14.88;3.63;;;;;;;;;;5041451;28;20057;-66
2023/07/30 04:31:28;;;;;;;22.20;3.92;;;;;;;;;;5038855;28;20141;-63
2023/07/30 04:33:55;;;;;;;15.15;4.82;;;;;;;;;;5039699;28;20059;-65
2023/07/30 04:36:21;;;;;;;21.20;4.13;;;;;;;;;;5039145;28;20222;-66
2023/07/30 04:38:48;;;;;;;19.60;4.43;;;;;;;;;;5041904;28;20144;-66
2023/07/30 04:41:14;;;;;;;16.17;4.25;;;;;;;;;;5039047;28;20054;-66
2023/07/30 04:43:40;;;;;;;19.05;4.40;;;;;;;;;;5043061;28;20675;-63
2023/07/30 04:46:07;;;;;;;21.83;5.45;;;;;;;;;;5038103;28;20104;-66
2023/07/30 04:48:33;;;;;;;15.70;4.75;;;;;;;;;;5041805;28;20051;-64
2023/07/30 04:51:00;;;;;;;20.08;6.03;;;;;;;;;;5040950;28;20088;-62
2023/07/30 04:53:26;;;;;;;19.23;4.10;;;;;;;;;;5040577;28;20137;-67
2023/07/30 04:55:59;;;;;;;18.92;4.63;;;;;;;;;;5041707;28;20563;-63
2023/07/30 04:58:25;;;;;;;19.38;5.22;;;;;;;;;;5041465;28;20053;-63
2023/07/30 05:00:52;;;;;;;14.93;5.65;;;;;;;;;;5042243;28;20133;-66
2023/07/30 05:03:18;;;;;;;18.30;4.90;;;;;;;;;;5038422;28;20049;-64
2023/07/30 05:05:45;;;;;;;19.58;4.82;;;;;;;;;;5041059;28;20141;-66
2023/07/30 05:08:11;;;;;;;22.70;4.82;;;;;;;;;;5043320;28;20104;-62
2023/07/30 05:10:38;;;;;;;25.95;5.45;;;;;;;;;;5034528;28;20160;-65
2023/07/30 05:13:04;;;;;;;16.95;4.45;;;;;;;;;;5038699;28;20053;-63
2023/07/30 05:15:31;;;;;;;24.08;5.03;;;;;;;;;;5041119;28;20054;-62
2023/07/30 05:17:57;;;;;;;16.58;4.90;;;;;;;;;;5038517;28;20054;-66
2023/07/30 05:20:24;;;;;;;23.83;4.90;;;;;;;;;;5041133;28;20046;-66
2023/07/30 05:22:50;;;;;;;16.52;4.28;;;;;;;;;;5031921;28;20116;-64
2023/07/30 05:25:17;;;;;;;18.88;4.70;;;;;;;;;;5030832;28;20188;-64
2023/07/30 05:27:43;;;;;;;21.23;5.72;;;;;;;;;;5041511;28;20080;-63
2023/07/30 05:30:10;;;;;;;18.98;4.43;;;;;;;;;;5032637;28;20054;-65
2023/07/30 05:32:36;;;;;;;22.90;5.60;;;;;;;;;;5040968;28;20575;-61
2023/07/30 05:35:03;;;;;;;17.15;5.75;;;;;;;;;;5042331;28;20572;-60
2023/07/30 05:37:29;;;;;;;23.95;5.95;;;;;;;;;;5042622;28;20874;-62
2023/07/30 05:39:56;;;;;;;19.63;5.03;;;;;;;;;;5041358;28;20437;-63
2023/07/30 05:42:22;;;;;;;16.10;4.93;;;;;;;;;;5036920;28;20084;-65
2023/07/30 05:44:49;;;;;;;27.90;5.45;;;;;;;;;;5041631;28;20581;-66
2023/07/30 05:47:15;;;;;;;24.58;6.82;;;;;;;;;;5041320;28;20050;-65
2023/07/30 05:49:41;;;;;;;22.15;6.30;;;;;;;;;;5042655;28;20144;-62
2023/07/30 05:52:08;;;;;;;25.60;6.30;;;;;;;;;;5047757;28;20103;-65
2023/07/30 05:54:34;;;;;;;21.73;5.65;;;;;;;;;;5041789;28;20049;-64
2023/07/30 05:57:01;;;;;;;21.08;6.50;;;;;;;;;;5041149;28;20061;-67
2023/07/30 05:59:27;;;;;;;16.58;5.47;;;;;;;;;;5041703;28;20061;-65
2023/07/30 06:01:55;;;;;;;19.25;5.80;;;;;;;;;;5041641;28;20582;-66
2023/07/30 06:04:22;;;;;;;23.30;5.63;;;;;;;;;;5040001;28;20582;-64
2023/07/30 06:06:48;;;;;;;20.77;5.60;;;;;;;;;;5034866;28;20045;-64
2023/07/30 06:09:15;;;;;;;17.90;7.00;;;;;;;;;;5037178;28;20053;-67
2023/07/30 06:11:41;;;;;;;17.48;5.80;;;;;;;;;;5042132;28;20049;-67
2023/07/30 06:14:08;;;;;;;17.73;5.45;;;;;;;;;;5043960;28;20645;-66
2023/07/30 06:16:34;;;;;;;11.32;5.22;;;;;;;;;;5038643;28;20144;-60
2023/07/30 06:19:01;;;;;;;14.30;5.85;;;;;;;;;;5037771;28;20060;-65
2023/07/30 06:21:27;;;;;;;18.67;6.95;;;;;;;;;;5040963;28;20543;-65
2023/07/30 06:23:54;;;;;;;23.10;6.05;;;;;;;;;;5042371;28;20671;-62
2023/07/30 06:26:20;;;;;;;17.45;6.25;;;;;;;;;;5028537;28;20057;-67
2023/07/30 06:28:47;;;;;;;23.30;6.43;;;;;;;;;;5047205;28;20081;-63
2023/07/30 06:31:13;;;;;;;15.40;5.75;;;;;;;;;;5039740;28;20530;-66
2023/07/30 06:33:40;;;;;;;15.85;5.78;;;;;;;;;;5028945;28;20415;-67
2023/07/30 06:36:06;;;;;;;13.35;5.28;;;;;;;;;;5037569;28;20053;-65
2023/07/30 06:38:33;;;;;;;20.17;5.40;;;;;;;;;;5041667;28;20057;-59
2023/07/30 06:41:03;;;;;;;23.85;6.88;;;;;;;;;;5036163;28;20437;-62
2023/07/30 06:43:29;;;;;;;16.00;5.10;;;;;;;;;;5046175;28;20558;-67
2023/07/30 06:45:56;;;;;;;22.75;6.32;;;;;;;;;;5044752;28;20516;-67
2023/07/30 06:48:22;;;;;;;13.75;5.60;;;;;;;;;;5042319;28;20092;-66
2023/07/30 06:50:49;;;;;;;20.70;5.25;;;;;;;;;;5042972;28;20072;-63
2023/07/30 06:53:15;;;;;;;16.75;4.65;;;;;;;;;;5044795;28;20569;-67
2023/07/30 06:55:44;;;;;;;19.48;5.28;;;;;;;;;;5042723;28;20628;-66
2023/07/30 06:58:12;;;;;;;16.98;5.57;;;;;;;;;;5043928;28;20060;-63
2023/07/30 07:00:39;;;;;;;16.48;5.50;;;;;;;;;;5042446;28;20045;-62
2023/07/30 07:03:05;;;;;;;19.63;5.63;;;;;;;;;;5044171;28;20474;-67
2023/07/30 07:05:32;;;;;;;22.92;5.95;;;;;;;;;;5043357;28;20233;-62
2023/07/30 07:07:58;;;;;;;13.15;4.68;;;;;;;;;;5029868;28;20068;-65
2023/07/30 07:10:25;;;;;;;14.95;5.65;;;;;;;;;;5042043;28;20057;-65
2023/07/30 07:12:51;;;;;;;12.70;4.80;;;;;;;;;;5044252;28;20049;-64
2023/07/30 07:15:17;;;;;;;17.88;4.95;;;;;;;;;;5041896;28;20286;-64
2023/07/30 07:17:44;;;;;;;15.68;5.30;;;;;;;;;;5027576;28;20061;-66
2023/07/30 07:20:11;;;;;;;16.25;5.43;;;;;;;;;;5036800;28;20057;-66
2023/07/30 07:22:37;;;;;;;13.20;4.13;;;;;;;;;;5042910;28;20065;-63
2023/07/30 07:25:04;;;;;;;13.20;4.53;;;;;;;;;;5043304;28;20057;-64
2023/07/30 07:27:30;;;;;;;25.20;5.68;;;;;;;;;;5043110;28;20052;-61
2023/07/30 07:29:57;;;;;;;16.33;4.90;;;;;;;;;;5043437;28;20128;-64
2023/07/30 07:32:23;;;;;;;15.40;5.70;;;;;;;;;;5040428;28;20054;-64
2023/07/30 07:34:50;;;;;;;9.45;4.35;;;;;;;;;;5027141;28;20184;-62
2023/07/30 07:37:18;;;;;;;15.20;4.25;;;;;;;;;;5044345;28;20060;-62
2023/07/30 07:39:45;;;;;;;21.35;4.53;;;;;;;;;;5042030;28;20488;-65
2023/07/30 07:42:12;;;;;;;14.02;4.28;;;;;;;;;;5075320;28;20105;-66
2023/07/30 07:44:38;;;;;;;14.23;4.50;;;;;;;;;;5040300;28;20139;-64
2023/07/30 07:47:05;;;;;;;19.05;3.95;;;;;;;;;;5043445;28;20132;-66
2023/07/30 07:49:31;;;;;;;18.23;4.10;;;;;;;;;;5033277;28;20054;-64
2023/07/30 07:51:57;;;;;;;12.18;3.67;;;;;;;;;;5035510;28;20132;-66
2023/07/30 07:54:24;;;;;;;14.68;4.05;;;;;;;;;;5040119;28;20136;-67
2023/07/30 07:56:50;;;;;;;14.50;3.38;;;;;;;;;;5038864;28;20049;-63
2023/07/30 07:59:16;;;;;;;20.88;4.85;;;;;;;;;;5041232;28;20053;-56
2023/07/30 08:01:43;;;;;;;12.20;3.20;;;;;;;;;;5042800;28;20152;-67
2023/07/30 08:04:09;;;;;;;22.67;3.97;;;;;;;;;;5043228;28;20056;-62
2023/07/30 08:06:36;;;;;;;10.88;3.15;;;;;;;;;;5038364;28;20148;-66
2023/07/30 08:09:03;;;;;;;12.07;3.22;;;;;;;;;;5057692;28;20053;-66
2023/07/30 08:11:29;;;;;;;15.23;3.83;;;;;;;;;;5046704;28;20061;-61
2023/07/30 08:13:57;;;;;;;16.73;3.78;;;;;;;;;;5045241;28;20204;-67
2023/07/30 08:16:23;;;;;;;14.13;4.55;;;;;;;;;;5042916;28;21012;-66
2023/07/30 08:18:49;;;;;;;15.55;4.55;;;;;;;;;;5037710;28;20060;-65
2023/07/30 08:21:17;;;;;;;18.63;4.00;;;;;;;;;;5042248;28;20057;-62
2023/07/30 08:23:45;;;;;;;8.88;4.03;;;;;;;;;;5042884;28;20084;-67
2023/07/30 08:26:12;;;;;;;8.82;3.22;;;;;;;;;;5043639;28;20251;-65
2023/07/30 08:28:38;;;;;;;10.77;3.60;;;;;;;;;;5043365;28;20053;-61
2023/07/30 08:31:05;;;;;;;13.52;3.53;;;;;;;;;;5038153;28;20508;-62
2023/07/30 08:33:32;;;;;;;10.73;3.38;;;;;;;;;;5043882;28;20045;-64
2023/07/30 08:35:59;;;;;;;12.32;3.42;;;;;;;;;;5042120;28;20057;-62
2023/07/30 08:38:25;;;;;;;12.32;3.50;;;;;;;;;;5039701;28;20058;-65
2023/07/30 08:40:51;;;;;;;10.90;3.13;;;;;;;;;;5041121;28;20147;-63
2023/07/30 08:43:18;;;;;;;12.65;3.33;;;;;;;;;;5041852;28;20065;-65
2023/07/30 08:45:45;;;;;;;11.15;2.97;;;;;;;;;;5041071;28;20057;-64
2023/07/30 08:48:12;;;;;;;17.58;4.05;;;;;;;;;;5042463;28;20057;-66
2023/07/30 08:50:38;;;;;;;12.20;3.38;;;;;;;;;;5024425;28;20054;-63
2023/07/30 08:53:06;;;;;;;10.55;3.75;;;;;;;;;;5041964;28;20081;-67
2023/07/30 08:55:34;;;;;;;11.25;3.17;;;;;;;;;;5041843;28;20061;-65
2023/07/30 08:58:04;;;;;;;15.57;3.10;;;;;;;;;;5041980;28;20123;-63
2023/07/30 09:00:32;;;;;;;8.35;2.53;;;;;;;;;;5041430;28;20172;-64
2023/07/30 09:03:00;;;;;;;15.52;2.97;;;;;;;;;;5040376;28;20678;-66
2023/07/30 09:05:29;;;;;;;9.35;2.70;;;;;;;;;;5039422;28;20046;-63
2023/07/30 09:07:56;;;;;;;8.23;2.50;;;;;;;;;;5037113;28;20057;-67
2023/07/30 09:10:23;;;;;;;8.25;1.80;;;;;;;;;;5041955;28;20053;-65
2023/07/30 09:12:54;;;;;;;8.65;2.53;;;;;;;;;;5040856;28;20061;-65
2023/07/30 09:15:29;;;;;;;10.27;2.15;;;;;;;;;;5038330;28;20049;-65
2023/07/30 09:17:56;;;;;;;9.15;3.70;;;;;;;;;;5041507;28;20054;-64
2023/07/30 09:20:22;;;;;;;9.35;2.65;;;;;;;;;;5042555;28;20550;-65
2023/07/30 09:22:50;;;;;;;7.95;2.20;;;;;;;;;;5040190;28;20055;-66
2023/07/30 09:25:20;;;;;;;10.20;2.65;;;;;;;;;;5040539;28;20520;-62
2023/07/30 09:27:50;;;;;;;9.63;2.47;;;;;;;;;;5041276;28;20496;-62
2023/07/30 09:30:23;;;;;;;12.02;2.80;;;;;;;;;;5035606;28;20612;-65
2023/07/30 09:32:51;;;;;;;10.45;2.83;;;;;;;;;;5035870;28;20080;-68
2023/07/30 09:35:17;;;;;;;9.02;2.40;;;;;;;;;;5040724;28;20465;-65
2023/07/30 09:37:44;;;;;;;15.13;2.80;;;;;;;;;;5042180;28;20589;-64
2023/07/30 09:40:12;;;;;;;9.82;2.83;;;;;;;;;;5041460;28;20554;-66
2023/07/30 09:42:43;;;;;;;9.27;2.05;;;;;;;;;;5041197;28;20057;-63
2023/07/30 09:45:20;;;;;;;12.75;3.00;;;;;;;;;;5036636;28;20506;-64
2023/07/30 09:47:47;;;;;;;8.65;2.17;;;;;;;;;;5040607;28;20053;-64
2023/07/30 09:50:14;;;;;;;9.05;2.80;;;;;;;;;;5038755;28;20058;-66
2023/07/30 09:52:42;;;;;;;10.10;2.63;;;;;;;;;;5040179;28;20046;-64
2023/07/30 09:55:09;;;;;;;10.20;2.50;;;;;;;;;;5042019;28;20569;-66
2023/07/30 09:57:38;;;;;;;12.20;3.20;;;;;;;;;;5042702;28;20065;-63
2023/07/30 10:00:06;;;;;;;10.02;1.85;;;;;;;;;;5042115;28;20050;-66
2023/07/30 10:02:33;;;;;;;11.70;2.42;;;;;;;;;;5034065;28;20483;-67
2023/07/30 10:05:03;;;;;;;10.93;2.20;;;;;;;;;;5037321;28;20401;-67
2023/07/30 10:07:30;;;;;;;10.55;2.10;;;;;;;;;;5041728;28;20328;-65
2023/07/30 10:09:58;;;;;;;8.68;1.95;;;;;;;;;;5039408;28;20053;-69
2023/07/30 10:12:27;;;;;;;8.38;1.70;;;;;;;;;;5041587;28;20046;-67
2023/07/30 10:14:53;;;;;;;10.20;2.05;;;;;;;;;;5039377;28;20065;-67
2023/07/30 10:17:20;;;;;;;7.05;1.98;;;;;;;;;;5040711;28;20235;-66
2023/07/30 10:19:48;;;;;;;4.70;1.80;;;;;;;;;;5041506;28;20577;-65
2023/07/30 10:22:18;;;;;;;4.15;1.70;;;;;;;;;;5041198;28;20056;-68
2023/07/30 10:24:55;;;;;;;6.38;1.55;;;;;;;;;;5039515;28;20053;-64
2023/07/30 10:27:26;;;;;;;5.35;1.70;;;;;;;;;;5031144;28;20688;-63
2023/07/30 10:30:22;;;;;;;7.05;1.60;;;;;;;;;;5041925;28;20205;-65
2023/07/30 10:32:54;;;;;;;10.05;1.80;;;;;;;;;;5036510;28;20547;-64
2023/07/30 10:35:40;;;;;;;10.70;1.60;;;;;;;;;;5038485;28;20060;-62
2023/07/30 10:38:15;;;;;;;8.98;2.35;;;;;;;;;;5040627;28;20139;-64
2023/07/30 10:40:42;;;;;;;9.77;2.33;;;;;;;;;;5035490;28;20049;-67
2023/07/30 10:43:17;;;;;;;6.78;1.30;;;;;;;;;;5039532;28;20119;-64
2023/07/30 10:45:50;;;;;;;3.85;1.42;;;;;;;;;;5038619;28;20079;-66
2023/07/30 10:48:17;;;;;;;4.90;1.58;;;;;;;;;;5032449;28;20566;-61
2023/07/30 10:50:48;;;;;;;5.35;1.42;;;;;;;;;;5040627;28;20148;-68
2023/07/30 10:53:16;;;;;;;13.88;1.83;;;;;;;;;;5048977;28;20676;-68
2023/07/30 10:55:43;;;;;;;8.52;1.65;;;;;;;;;;5054063;28;20140;-67
2023/07/30 10:58:10;;;;;;;10.00;1.40;;;;;;;;;;5041293;28;20058;-66
2023/07/30 11:00:36;;;;;;;3.53;1.50;;;;;;;;;;5040708;28;20127;-67
2023/07/30 11:03:03;;;;;;;6.90;1.75;;;;;;;;;;5039902;28;20058;-65
2023/07/30 11:05:30;;;;;;;5.22;1.42;;;;;;;;;;5047751;28;20060;-66
2023/07/30 11:07:56;;;;;;;4.50;1.20;;;;;;;;;;5057155;28;20064;-64
2023/07/30 11:10:23;;;;;;;6.38;1.23;;;;;;;;;;5041856;28;20062;-60
2023/07/30 11:12:49;;;;;;;6.63;1.75;;;;;;;;;;5039546;28;20640;-67
2023/07/30 11:15:16;;;;;;;8.77;1.55;;;;;;;;;;5041066;28;20053;-62
2023/07/30 11:17:45;;;;;;;3.38;1.35;;;;;;;;;;5040055;28;20594;-67
2023/07/30 11:20:22;;;;;;;3.95;1.40;;;;;;;;;;5042297;28;20049;-69
2023/07/30 11:22:49;;;;;;;4.53;1.20;;;;;;;;;;5036021;28;20073;-68
2023/07/30 11:25:16;;;;;;;4.82;1.40;;;;;;;;;;5041476;28;20492;-67
2023/07/30 11:27:46;;;;;;;6.47;1.13;;;;;;;;;;5040989;28;20085;-60
2023/07/30 11:30:13;;;;;;;6.03;1.23;;;;;;;;;;5043842;28;20846;-65
2023/07/30 11:32:40;;;;;;;3.55;1.10;;;;;;;;;;5045204;28;20478;-69
2023/07/30 11:35:07;;;;;;;5.20;1.00;;;;;;;;;;5044240;28;20053;-68
2023/07/30 11:37:33;;;;;;;8.38;1.48;;;;;;;;;;5041905;28;20061;-64
2023/07/30 11:40:00;;;;;;;4.30;1.10;;;;;;;;;;5036963;28;20053;-66
2023/07/30 11:42:29;;;;;;;12.18;2.45;;;;;;;;;;5043562;28;20501;-64
2023/07/30 11:44:56;;;;;;;7.88;1.35;;;;;;;;;;5034489;28;20054;-69
2023/07/30 11:47:22;;;;;;;6.22;1.25;;;;;;;;;;5047213;28;20586;-68
2023/07/30 11:49:58;;;;;;;3.33;1.30;;;;;;;;;;5044672;28;20057;-65
2023/07/30 11:52:24;;;;;;;3.40;1.40;;;;;;;;;;5043003;28;20448;-70
2023/07/30 11:55:01;;;;;;;7.25;1.20;;;;;;;;;;5042458;28;20060;-67
2023/07/30 11:57:34;;;;;;;5.40;1.10;;;;;;;;;;5037816;28;20112;-64
2023/07/30 12:00:00;;;;;;;5.60;1.13;;;;;;;;;;5041318;28;20161;-66
2023/07/30 12:02:27;;;;;;;6.65;1.73;;;;;;;;;;5042828;28;20140;-62
2023/07/30 12:04:54;;;;;;;4.43;1.15;;;;;;;;;;5044817;28;20247;-64
2023/07/30 12:07:39;;;;;;;3.90;1.25;;;;;;;;;;5046915;28;20171;-66
2023/07/30 12:10:13;;;;;;;2.47;0.95;;;;;;;;;;5043613;28;20557;-67
2023/07/30 12:12:45;;;;;;;5.45;1.23;;;;;;;;;;5043287;28;20058;-66
2023/07/30 12:15:12;;;;;;;14.82;1.70;;;;;;;;;;5042941;28;20061;-65
2023/07/30 12:17:39;;;;;;;5.78;1.42;;;;;;;;;;5032227;28;20061;-64
2023/07/30 12:20:09;;;;;;;6.65;1.20;;;;;;;;;;5042369;28;20157;-65
2023/07/30 12:22:35;;;;;;;5.50;1.23;;;;;;;;;;5040425;28;20053;-65
2023/07/30 12:25:03;;;;;;;2.88;1.27;;;;;;;;;;5042815;28;20700;-63
2023/07/30 12:27:30;;;;;;;4.22;1.33;;;;;;;;;;5043965;28;20073;-67
2023/07/30 12:29:56;;;;;;;5.03;1.95;;;;;;;;;;5044053;28;20484;-65
2023/07/30 12:32:24;;;;;;;6.65;1.30;;;;;;;;;;5041482;28;20754;-63
2023/07/30 12:34:50;;;;;;;3.40;1.05;;;;;;;;;;5043309;28;20050;-65
2023/07/30 12:37:17;;;;;;;5.45;1.05;;;;;;;;;;5042156;28;20634;-61
2023/07/30 12:39:43;;;;;;;1.08;0.50;;;;;;;;;;5043746;28;20050;-64
2023/07/30 12:42:10;;;;;;;1.23;0.60;;;;;;;;;;5043280;28;20064;-67
2023/07/30 12:44:36;;;;;;;2.78;0.60;;;;;;;;;;5041826;28;20061;-65
2023/07/30 12:47:03;;;;;;;4.22;0.65;;;;;;;;;;5042276;28;20439;-65
2023/07/30 12:49:30;;;;;;;5.25;0.90;;;;;;;;;;5042023;28;20053;-66
2023/07/30 12:51:56;;;;;;;3.03;0.70;;;;;;;;;;5042188;28;20053;-66
2023/07/30 12:54:23;;;;;;;2.45;0.65;;;;;;;;;;5039701;28;20167;-62
2023/07/30 12:56:49;;;;;;;3.65;0.60;;;;;;;;;;5041660;28;20542;-64
2023/07/30 12:59:16;;;;;;;9.40;2.35;;;;;;;;;;5041440;28;20057;-65
2023/07/30 13:01:42;;;;;;;4.80;0.88;;;;;;;;;;5042014;28;20479;-66
2023/07/30 13:04:13;;;;;;;3.30;0.57;;;;;;;;;;5042491;28;20057;-63
2023/07/30 13:06:39;;;;;;;1.20;0.60;;;;;;;;;;5041203;28;20481;-67
2023/07/30 13:09:06;;;;;;;1.65;1.00;;;;;;;;;;5041403;28;20495;-67
2023/07/30 13:11:32;;;;;;;2.45;1.10;;;;;;;;;;5042291;28;20181;-62
2023/07/30 13:13:59;;;;;;;1.63;0.65;;;;;;;;;;5042931;28;20520;-62
2023/07/30 13:16:31;;;;;;;5.20;0.98;;;;;;;;;;5042908;28;20057;-64
2023/07/30 13:18:58;;;;;;;4.53;1.10;;;;;;;;;;5040594;28;20057;-62
2023/07/30 13:21:24;;;;;;;4.57;0.90;;;;;;;;;;5041885;28;20049;-65
2023/07/30 13:23:51;;;;;;;4.03;1.73;;;;;;;;;;5042069;28;20143;-67
2023/07/30 13:26:18;;;;;;;3.13;0.70;;;;;;;;;;5039238;28;20050;-68
2023/07/30 13:28:45;;;;;;;0.95;0.68;;;;;;;;;;5041313;28;20057;-68
2023/07/30 13:31:12;;;;;;;3.42;0.85;;;;;;;;;;5042440;28;20057;-67
2023/07/30 13:33:39;;;;;;;1.48;0.93;;;;;;;;;;5038789;28;20085;-63
2023/07/30 13:36:05;;;;;;;5.97;1.15;;;;;;;;;;5056495;28;20053;-64
2023/07/30 13:38:32;;;;;;;7.65;0.80;;;;;;;;;;5038477;28;20292;-63
2023/07/30 13:40:59;;;;;;;2.90;0.75;;;;;;;;;;5041552;28;20116;-65
2023/07/30 13:43:25;;;;;;;4.95;0.85;;;;;;;;;;5038141;28;20053;-63
2023/07/30 13:45:52;;;;;;;2.97;0.90;;;;;;;;;;5040896;28;20051;-66
2023/07/30 13:48:19;;;;;;;2.08;0.90;;;;;;;;;;5039929;28;20526;-69
2023/07/30 13:50:46;;;;;;;1.65;0.80;;;;;;;;;;5038624;28;20061;-62
2023/07/30 13:53:12;;;;;;;6.43;1.23;;;;;;;;;;5041526;28;20081;-67
2023/07/30 13:55:39;;;;;;;2.20;1.00;;;;;;;;;;5041692;28;20108;-64
2023/07/30 13:58:05;;;;;;;1.35;0.70;;;;;;;;;;5039365;28;20063;-67
2023/07/30 14:00:31;;;;;;;2.30;0.70;;;;;;;;;;5033435;28;20053;-69
2023/07/30 14:02:58;;;;;;;3.67;2.35;;;;;;;;;;5046622;28;20050;-63
2023/07/30 14:05:24;;;;;;;4.38;1.05;;;;;;;;;;5039325;28;20579;-68
2023/07/30 14:07:53;;;;;;;3.78;0.73;;;;;;;;;;5038932;28;20522;-68
2023/07/30 14:10:20;;;;;;;2.47;0.70;;;;;;;;;;5028650;28;20057;-63
2023/07/30 14:12:46;;;;;;;3.05;0.88;;;;;;;;;;5035233;28;20049;-65
2023/07/30 14:15:13;;;;;;;6.88;1.48;;;;;;;;;;5041244;28;20142;-67
2023/07/30 14:17:39;;;;;;;5.05;1.33;;;;;;;;;;5041073;28;20108;-64
2023/07/30 14:20:06;;;;;;;2.83;0.80;;;;;;;;;;5040468;28;20526;-67
2023/07/30 14:22:33;;;;;;;5.13;1.15;;;;;;;;;;5040807;28;20053;-59
2023/07/30 14:24:59;;;;;;;4.95;1.50;;;;;;;;;;5040923;28;20135;-64
2023/07/30 14:27:25;;;;;;;7.25;1.52;;;;;;;;;;5027157;28;20084;-69
2023/07/30 14:29:52;;;;;;;5.88;1.42;;;;;;;;;;5039348;28;20053;-64
2023/07/30 14:32:23;;;;;;;4.82;1.10;;;;;;;;;;5033920;28;20187;-65
2023/07/30 14:34:49;;;;;;;3.58;1.05;;;;;;;;;;5031099;28;20140;-64
2023/07/30 14:37:16;;;;;;;5.55;1.00;;;;;;;;;;5036164;28;20690;-58